Map

Track Data

SID SEASON NUMBER BASIN SUBBASIN NAME ISO_TIME NATURE LAT LON WMO_WIND WMO_PRES WMO_AGENCY TRACK_TYPE DIST2LAND LANDFALL IFLAG USA_AGENCY USA_ATCF_ID USA_LAT USA_LON USA_RECORD USA_STATUS USA_WIND USA_PRES USA_SSHS USA_R34_NE USA_R34_SE USA_R34_SW USA_R34_NW USA_R50_NE USA_R50_SE USA_R50_SW USA_R50_NW USA_R64_NE USA_R64_SE USA_R64_SW USA_R64_NW USA_POCI USA_ROCI USA_RMW USA_EYE TOKYO_LAT TOKYO_LON TOKYO_GRADE TOKYO_WIND TOKYO_PRES TOKYO_R50_DIR TOKYO_R50_LONG TOKYO_R50_SHORT TOKYO_R30_DIR TOKYO_R30_LONG TOKYO_R30_SHORT TOKYO_LAND CMA_LAT CMA_LON CMA_CAT CMA_WIND CMA_PRES HKO_LAT HKO_LON HKO_CAT HKO_WIND HKO_PRES NEWDELHI_LAT NEWDELHI_LON NEWDELHI_GRADE NEWDELHI_WIND NEWDELHI_PRES NEWDELHI_CI NEWDELHI_DP NEWDELHI_POCI REUNION_LAT REUNION_LON REUNION_TYPE REUNION_WIND REUNION_PRES REUNION_TNUM REUNION_CI REUNION_RMW REUNION_R34_NE REUNION_R34_SE REUNION_R34_SW REUNION_R34_NW REUNION_R50_NE REUNION_R50_SE REUNION_R50_SW REUNION_R50_NW REUNION_R64_NE REUNION_R64_SE REUNION_R64_SW REUNION_R64_NW BOM_LAT BOM_LON BOM_TYPE BOM_WIND BOM_PRES BOM_TNUM BOM_CI BOM_RMW BOM_R34_NE BOM_R34_SE BOM_R34_SW BOM_R34_NW BOM_R50_NE BOM_R50_SE BOM_R50_SW BOM_R50_NW BOM_R64_NE BOM_R64_SE BOM_R64_SW BOM_R64_NW BOM_ROCI BOM_POCI BOM_EYE BOM_POS_METHOD BOM_PRES_METHOD NADI_LAT NADI_LON NADI_CAT NADI_WIND NADI_PRES WELLINGTON_LAT WELLINGTON_LON WELLINGTON_WIND WELLINGTON_PRES DS824_LAT DS824_LON DS824_STAGE DS824_WIND DS824_PRES TD9636_LAT TD9636_LON TD9636_STAGE TD9636_WIND TD9636_PRES TD9635_LAT TD9635_LON TD9635_WIND TD9635_PRES TD9635_ROCI NEUMANN_LAT NEUMANN_LON NEUMANN_CLASS NEUMANN_WIND NEUMANN_PRES MLC_LAT MLC_LON MLC_CLASS MLC_WIND MLC_PRES USA_GUST BOM_GUST BOM_GUST_PER REUNION_GUST REUNION_GUST_PER USA_SEAHGT USA_SEARAD_NE USA_SEARAD_SE USA_SEARAD_SW USA_SEARAD_NW STORM_SPEED STORM_DIR
1978010S11129 1978 2 SI WA TRUDY 1978-01-10 00:00:00 TS -10.6000 129.000 20 1004 bom main 156 156 O_____O__OO___ jtwc_sh SH121978 -10.6000 129.000 25 -1 -10.6000 129.000 20 20 1004 1.00000 1.00000 -10.6000 129.000 TC 20 1004 -10.6000 129.000 1 25 20 269
1978010S11129 1978 2 SI WA TRUDY 1978-01-10 03:00:00 TS -10.6254 127.964 25 1004 bom main 239 190 P_____O__PP___ SH121978 -10.6507 127.938 25 -1 -10.6000 128.000 20 25 1004 1.50000 -10.5780 128.007 TC 22 1003 -10.6475 127.935 1 25 20 268
1978010S11129 1978 2 SI WA TRUDY 1978-01-10 06:00:00 TS -10.6552 126.974 25 1003 bom main 198 164 O_____O__OP_O_ jtwc_sh SH121978 -10.7000 126.900 25 -1 -10.6000 127.000 20 25 1003 1.50000 -10.6000 127.000 TC 25 1003 -10.6944 126.896 1 25 -10.6000 127.500 TC 25 1003 19 267
1978010S11129 1978 2 SI WA TRUDY 1978-01-10 09:00:00 TS -10.7196 125.991 25 1003 bom main 164 102 P_____O__PP_P_ SH121978 -10.7498 125.913 25 -1 -10.7000 126.000 20 25 1003 2.00000 -10.6924 125.978 TC 25 1003 -10.7440 125.909 1 25 -10.6432 126.483 TC 25 1003 19 266
1978010S11129 1978 2 SI WA TRUDY 1978-01-10 12:00:00 TS -10.7870 125.065 25 1003 bom main 102 64 O_____O__OO_O_ jtwc_sh SH121978 -10.8000 125.000 25 -1 -10.8000 125.000 20 25 1003 2.00000 -10.8000 125.000 TC 25 1003 -10.8000 125.000 1 25 -10.7000 125.500 TC 25 1003 17 267
1978010S11129 1978 2 SI WA TRUDY 1978-01-10 15:00:00 TS -10.8236 124.225 25 1003 bom main 60 46 P_____O__PP_P_ SH121978 -10.8271 124.185 25 -1 -10.8000 124.100 20 25 1003 2.00000 -10.8346 124.120 TC 25 1003 -10.8684 124.180 1 25 -10.7847 124.577 TC 25 1003 16 266
1978010S11129 1978 2 SI WA TRUDY 1978-01-10 18:00:00 TS -10.9106 123.417 25 1003 bom main 57 57 O_____O__OP_O_ jtwc_sh SH121978 -10.9000 123.400 25 -1 -10.9000 123.300 20 25 1003 2.00000 -10.9000 123.300 TC 25 1003 -10.9638 123.400 1 25 -10.9000 123.700 TC 25 1003 16 262
1978010S11129 1978 2 SI WA TRUDY 1978-01-10 21:00:00 TS -11.0525 122.617 25 1003 bom main 125 125 P_____O__PP_P_ SH121978 -11.0619 122.602 25 -1 -11.0000 122.500 20 25 1003 2.00000 -11.0618 122.537 TC 25 1003 -11.1025 122.595 1 25 -11.0270 122.865 TC 25 1003 17 257
1978010S11129 1978 2 SI WA TRUDY 1978-01-11 00:00:00 TS -11.2833 121.750 25 1003 bom main 172 138 O_____O__OO_O_ jtwc_sh SH121978 -11.3000 121.700 25 -1 -11.3000 121.700 20 25 1003 2.00000 2.00000 -11.3000 121.700 TC 25 1003 -11.3000 121.700 1 25 -11.2000 122.000 TC 25 1003 20 255
1978010S11129 1978 2 SI WA TRUDY 1978-01-11 03:00:00 TS -11.5533 120.692 25 1002 bom main 147 145 P_____O__PP_P_ SH121978 -11.5774 120.602 27 -1 -11.6000 120.600 20 25 1002 2.00000 -11.5773 120.667 TC 27 1001 -11.5681 120.618 1 27 -11.4195 121.060 TC 25 1002 22 255
1978010S11129 1978 2 SI WA TRUDY 1978-01-11 06:00:00 TS -11.8651 119.540 30 1000 bom main 205 205 O_____O__OP_O_ jtwc_sh SH121978 -11.9000 119.400 30 -1 -11.9000 119.500 20 30 1000 2.50000 -11.9000 119.500 TC 30 1000 -11.8908 119.440 1 30 -11.7000 120.000 TC 25 1001 24 254
1978010S11129 1978 2 SI WA TRUDY 1978-01-11 09:00:00 TS -12.2187 118.323 30 998 bom main 293 293 P_____O__PP_P_ SH121978 -12.2497 118.200 32 -1 -12.3000 118.300 20 30 998 2.50000 -12.2350 118.250 TC 32 998 -12.2429 118.217 1 32 -12.0351 118.773 TC 30 999 25 254
1978010S11129 1978 2 SI WA TRUDY 1978-01-11 12:00:00 TS -12.5667 117.083 30 996 bom main 391 391 O_____O__OO_O_ jtwc_sh SH121978 -12.6000 117.000 35 0 -12.6000 117.000 20 30 996 2.50000 -12.6000 117.000 TC 35 996 -12.6000 117.000 2 35 -12.4000 117.500 TC 35 997 24 253
1978010S11129 1978 2 SI WA TRUDY 1978-01-11 15:00:00 TS -12.9264 115.939 30 996 bom main 440 440 P_____O__PP_P_ SH121978 -12.8995 115.835 35 0 -13.0000 115.900 20 30 996 2.50000 -13.0141 115.885 TC 35 996 -12.9884 115.854 2 36 -12.7569 116.327 TC 35 996 23 252
1978010S11129 1978 2 SI WA TRUDY 1978-01-11 18:00:00 TS -13.2780 114.820 30 996 bom main 504 503 O_____O__OP_O_ jtwc_sh SH121978 -13.2000 114.700 35 0 -13.4000 114.800 20 30 996 2.50000 -13.4000 114.800 TC 35 996 -13.3679 114.723 2 37 -13.1000 115.200 TC 35 996 23 252
1978010S11129 1978 2 SI WA TRUDY 1978-01-11 21:00:00 TS -13.6157 113.704 35 995 bom main 546 546 P_____O__PP_P_ SH121978 -13.5869 113.593 37 0 -13.7000 113.700 30 35 995 3.00000 -13.7021 113.657 TC 37 995 -13.6885 113.604 2 38 -13.4296 114.077 TC 37 995 23 255
1978010S11129 1978 2 SI WA TRUDY 1978-01-12 00:00:00 TS -13.8667 112.583 40 994 bom main 607 607 O_____O__OO_O_ jtwc_sh SH121978 -13.9000 112.500 40 0 -13.9000 112.500 30 40 994 3.00000 3.00000 -13.9000 112.500 TC 40 994 -13.9000 112.500 2 40 -13.7000 113.000 TC 40 994 22 260
1978010S11129 1978 2 SI WA TRUDY 1978-01-12 03:00:00 TS -13.9916 111.479 45 992 bom main 627 627 P_____O__PP_P_ SH121978 -14.0321 111.392 42 0 -14.0000 111.400 30 45 992 3.00000 -14.0173 111.328 TC 47 989 -13.9517 111.364 2 42 -13.9167 112.000 TC 42 992 21 267
1978010S11129 1978 2 SI WA TRUDY 1978-01-12 06:00:00 TS -13.9820 110.375 50 985 bom main 643 640 O_____O__OP_O_ jtwc_sh SH121978 -14.0000 110.300 45 0 -14.0000 110.200 30 50 985 3.50000 -14.0000 110.200 TC 55 985 -13.8921 110.250 2 45 -14.0000 111.000 TC 45 990 21 274
1978010S11129 1978 2 SI WA TRUDY 1978-01-12 09:00:00 TS -13.8329 109.303 main 645 645 P_____P__PP_P_ SH121978 -13.8297 109.220 47 0 -13.8371 109.144 30 50 985 -13.8371 109.155 TC 55 985 -13.7614 109.186 2 47 -13.9025 109.892 TC 50 988 21 280
1978010S11129 1978 2 SI WA TRUDY 1978-01-12 12:00:00 TS -13.6167 108.300 50 985 bom main 649 636 O_____O__OO_O_ jtwc_sh SH121978 -13.6000 108.200 50 0 -13.6000 108.200 30 50 985 3.50000 -13.6000 108.200 TC 55 985 -13.6000 108.200 2 50 -13.7000 108.800 TC 55 986 19 282
1978010S11129 1978 2 SI WA TRUDY 1978-01-12 15:00:00 TS -13.4325 107.364 50 984 bom main 636 634 P_____O__PP_P_ SH121978 -13.4422 107.248 52 0 -13.4000 107.300 30 50 984 3.50000 -13.3846 107.313 TC 55 984 -13.4336 107.280 2 52 -13.4922 107.797 TC 55 984 18 282
1978010S11129 1978 2 SI WA TRUDY 1978-01-12 18:00:00 TS -13.2589 106.524 50 983 bom main 643 634 O_____O__OP_O_ jtwc_sh SH121978 -13.3000 106.400 55 0 -13.2000 106.500 30 50 983 3.50000 -13.2000 106.500 TC 55 983 -13.2535 106.442 2 55 -13.3000 106.900 TC 55 983 16 281
1978010S11129 1978 2 SI WA TRUDY 1978-01-12 21:00:00 TS -13.1188 105.752 55 982 bom main 641 638 P_____O__PP_P_ SH121978 -13.1347 105.655 57 0 -13.1000 105.700 30 55 982 4.00000 -13.0698 105.713 TC 57 982 -13.0967 105.683 2 57 -13.1771 106.105 TC 57 982 14 280
1978010S11129 1978 2 SI WA TRUDY 1978-01-13 00:00:00 TS -13.0167 105.067 55 981 bom main 643 643 O_____O__OO_O_ jtwc_sh SH121978 -13.0000 105.000 60 0 -13.0000 105.000 30 55 981 4.00000 4.00000 -13.0000 105.000 TC 60 981 -13.0000 105.000 2 60 -13.1000 105.400 TC 60 981 13 278
1978010S11129 1978 2 SI WA TRUDY 1978-01-13 03:00:00 TS -12.9402 104.431 60 979 bom main 653 653 P_____O__PP_P_ SH121978 -12.8974 104.370 62 0 -12.9000 104.400 30 60 979 4.00000 -12.9623 104.363 TC 62 978 -12.9646 104.362 2 63 -13.0198 104.720 TC 62 979 12 272
1978010S11129 1978 2 SI WA TRUDY 1978-01-13 06:00:00 TS -12.9665 103.849 65 975 bom main 688 688 O_____O__OP_O_ jtwc_sh SH121978 -12.9000 103.800 65 1 -13.0000 103.800 30 65 975 4.50000 -13.0000 103.800 TC 65 975 -12.9988 103.795 2 67 -13.0000 104.100 TC 65 977 11 263
1978010S11129 1978 2 SI WA TRUDY 1978-01-13 09:00:00 TS -13.0747 103.325 70 971 bom main 723 723 P_____O__PP_P_ SH121978 -13.0399 103.278 70 1 -13.1000 103.300 30 70 971 4.50000 -13.1048 103.285 TC 70 972 -13.1086 103.281 2 71 -13.0548 103.527 TC 70 974 10 252
1978010S11129 1978 2 SI WA TRUDY 1978-01-13 12:00:00 TS -13.2833 102.833 75 969 bom main 769 769 O_____O__OO_O_ jtwc_sh SH121978 -13.3000 102.800 75 1 -13.3000 102.800 30 75 969 4.50000 -13.3000 102.800 TC 75 969 -13.3000 102.800 4 75 -13.2000 103.000 TC 75 971 11 243
1978010S11129 1978 2 SI WA TRUDY 1978-01-13 15:00:00 TS -13.5667 102.345 75 968 bom main 825 825 P_____O__PP_P_ SH121978 -13.6274 102.342 77 1 -13.6000 102.300 30 75 968 4.50000 -13.5625 102.285 TC 75 968 -13.5704 102.326 4 77 -13.4124 102.477 TC 77 969 11 236
1978010S11129 1978 2 SI WA TRUDY 1978-01-13 18:00:00 TS -13.9028 101.880 75 967 bom main 873 873 O_____O__OP_O_ jtwc_sh SH121978 -14.0000 101.900 80 1 -13.9000 101.800 30 75 967 4.50000 -13.9000 101.800 TC 75 967 -13.9168 101.878 4 80 -13.7000 102.000 TC 80 967 11 231
1978010S11129 1978 2 SI WA TRUDY 1978-01-13 21:00:00 TS -14.2682 101.452 80 966 bom main 932 932 P_____O__PP_P_ SH121978 -14.3499 101.450 82 1 -14.3000 101.400 30 80 966 5.00000 -14.2773 101.392 TC 77 965 -14.3048 101.441 4 82 -14.0274 101.577 TC 80 966 11 228
1978010S11129 1978 2 SI WA TRUDY 1978-01-14 00:00:00 TS -14.6500 101.033 80 964 bom main 986 986 O_____O__OO_O_ jtwc_sh SH121978 -14.7000 101.000 85 2 -14.7000 101.000 30 80 964 5.00000 -14.7000 101.000 TC 80 964 -14.7000 101.000 4 85 -14.4000 101.200 TC 80 965 11 226
1978010S11129 1978 2 SI WA TRUDY 1978-01-14 03:00:00 TS -15.0396 100.616 80 964 bom main 1046 1046 P_____O__PP_P_ SH121978 -15.0499 100.557 85 2 -15.1000 100.600 30 80 964 5.00000 5.00000 -15.1724 100.565 TC 78 965 -15.0657 100.552 4 85 -14.7998 100.865 TC 80 964 11 227
1978010S11129 1978 2 SI WA TRUDY 1978-01-14 06:00:00 TS -15.4215 100.182 80 965 bom main 1106 1106 O_____O__IP_O_ jtwc_sh SH121978 -15.4000 100.100 85 2 -15.5000 100.200 30 80 965 5.00000 -15.6000 100.100 TC 77 966 -15.4292 100.095 4 85 -15.2000 100.500 TC 80 964 11 231
1978010S11129 1978 2 SI WA TRUDY 1978-01-14 09:00:00 TS -15.7550 99.7031 80 966 bom main 1172 1172 P_____O__PP_P_ SH121978 -15.7573 99.6223 85 2 -15.8000 99.7000 30 80 966 5.00000 -15.8723 99.6221 TC 76 967 -15.7781 99.6146 4 85 -15.5649 100.037 TC 80 965 12 237
1978010S11129 1978 2 SI WA TRUDY 1978-01-14 12:00:00 TS -16.0667 99.1667 80 968 bom main 1229 1229 O_____O__OO_O_ jtwc_sh SH121978 -16.1000 99.1000 85 2 -16.1000 99.1000 40 80 968 4.50000 -16.1000 99.1000 TC 75 968 -16.1000 99.1000 4 85 -15.9000 99.5000 TC 80 967 12 240
1978010S11129 1978 2 SI WA TRUDY 1978-01-14 15:00:00 TS -16.3791 98.5826 75 970 bom main 1293 1293 P_____O__PP_P_ SH121978 -16.4224 98.5150 82 1 -16.4000 98.5000 40 75 970 4.50000 -16.4075 98.5151 TC 72 969 -16.4071 98.5360 4 82 -16.2149 98.9149 TC 77 968 13 242
1978010S11129 1978 2 SI WA TRUDY 1978-01-14 18:00:00 TS -16.6637 97.9730 70 971 bom main 1357 1357 O_____O__OP_O_ jtwc_sh SH121978 -16.7000 97.9000 80 1 -16.7000 97.9000 40 70 971 4.50000 -16.7000 97.9000 TC 70 971 -16.6824 97.9377 4 80 -16.5000 98.3000 TC 75 970 13 246
1978010S11129 1978 2 SI WA TRUDY 1978-01-14 21:00:00 TS -16.8976 97.3713 70 972 bom main 1413 1413 P_____O__PP_P_ SH121978 -16.9298 97.2999 77 1 -16.9000 97.3000 40 70 972 4.50000 -16.9298 97.2999 TC 70 972 -16.9164 97.3205 4 77 -16.7798 97.7075 TC 72 971 12 250
1978010S11129 1978 2 SI WA TRUDY 1978-01-15 00:00:00 TS -17.0833 96.7667 70 973 bom main 1471 1471 O_____O__OO_O_ jtwc_sh SH121978 -17.1000 96.7000 75 1 -17.1000 96.7000 40 70 973 4.50000 4.50000 -17.1000 96.7000 TC 70 973 -17.1000 96.7000 4 75 -17.0000 97.1000 TC 70 972 12 255
1978010S11129 1978 2 SI WA TRUDY 1978-01-15 03:00:00 TS -17.2031 96.1567 70 973 bom main 1520 1520 P_____O__PP_P_ SH121978 -17.2223 96.0999 77 1 -17.2000 96.1000 40 70 973 4.50000 -17.2223 96.0999 TC 72 971 -17.2290 96.0911 4 78 -17.1224 96.4497 TC 72 971 12 260
1978010S11129 1978 2 SI WA TRUDY 1978-01-15 06:00:00 TS -17.2849 95.5474 70 969 bom main 1578 1578 O_____O__OP_O_ jtwc_sh SH121978 -17.3000 95.5000 80 1 -17.3000 95.5000 40 70 969 4.50000 -17.3000 95.5000 TC 75 969 -17.3095 95.4840 4 82 -17.2000 95.8000 TC 75 970 12 262
1978010S11129 1978 2 SI WA TRUDY 1978-01-15 09:00:00 TS -17.3591 94.9425 75 962 bom main 1631 1631 P_____O__PP_P_ SH121978 -17.3574 94.8924 85 2 -17.4000 94.9000 40 75 962 5.00000 -17.3648 94.9000 TC 80 964 -17.3603 94.8850 4 86 -17.3148 95.1851 TC 80 966 11 264
1978010S11129 1978 2 SI WA TRUDY 1978-01-15 12:00:00 TS -17.4000 94.3500 80 960 bom main 1668 1668 O_____O__OO_O_ jtwc_sh SH121978 -17.4000 94.3000 90 2 -17.4000 94.3000 40 80 960 5.00000 -17.4000 94.3000 TC 85 960 -17.4000 94.3000 4 90 -17.4000 94.6000 TC 85 963 11 267
1978010S11129 1978 2 SI WA TRUDY 1978-01-15 15:00:00 TS -17.4247 93.7719 85 958 bom main 1715 1715 P_____O__PP_P_ SH121978 -17.4498 93.7425 92 2 -17.4000 93.7000 40 85 958 5.00000 -17.3924 93.6848 TC 85 958 -17.4487 93.7191 4 91 -17.4073 94.0423 TC 87 960 11 267
1978010S11129 1978 2 SI WA TRUDY 1978-01-15 18:00:00 TS -17.4487 93.2091 85 957 bom main 1762 1762 O_____O__OP_O_ jtwc_sh SH121978 -17.5000 93.2000 95 2 -17.4000 93.1000 40 85 957 5.00000 -17.4000 93.1000 TC 85 957 -17.4921 93.1546 4 92 -17.4000 93.5000 TC 90 958 11 266
1978010S11129 1978 2 SI WA TRUDY 1978-01-15 21:00:00 TS -17.5073 92.6671 85 956 bom main 1810 1810 P_____O__PP_P_ SH121978 -17.5425 92.6349 95 2 -17.5000 92.6000 40 85 956 5.50000 -17.4848 92.5851 TC 87 956 -17.5394 92.6128 4 93 -17.4350 92.9350 TC 92 956 10 262
1978010S11129 1978 2 SI WA TRUDY 1978-01-16 00:00:00 TS -17.5833 92.1500 90 955 bom main 1858 1858 O_____O__OO_O_ jtwc_sh SH121978 -17.6000 92.1000 95 2 -17.6000 92.1000 40 90 955 5.50000 -17.6000 92.1000 TC 90 955 -17.6000 92.1000 4 95 -17.5000 92.4000 TC 95 955 10 260
1978010S11129 1978 2 SI WA TRUDY 1978-01-16 03:00:00 TS -17.6756 91.6672 90 954 bom main 1906 1906 P_____O__PP_P_ SH121978 -17.6923 91.6350 95 2 -17.7000 91.6000 40 90 954 5.50000 5.50000 -17.7000 91.5850 TC 90 955 -17.6770 91.6131 4 93 -17.5923 91.9350 TC 95 954 9 258
1978010S11129 1978 2 SI WA TRUDY 1978-01-16 06:00:00 TS -17.7782 91.2091 90 955 bom main 1955 1955 O_____O__OP_O_ jtwc_sh SH121978 -17.8000 91.2000 95 2 -17.8000 91.1000 40 90 955 5.50000 -17.8000 91.1000 TC 90 955 -17.7693 91.1549 4 92 -17.7000 91.5000 TC 95 954 9 257
1978010S11129 1978 2 SI WA TRUDY 1978-01-16 09:00:00 TS -17.8795 90.7719 90 956 bom main 1996 1996 P_____O__PP_P_ SH121978 -17.8999 90.7425 92 2 -17.9000 90.7000 40 90 956 5.50000 -17.8998 90.6849 TC 87 956 -17.8771 90.7192 4 91 -17.7999 91.0425 TC 92 955 8 256
1978010S11129 1978 2 SI WA TRUDY 1978-01-16 12:00:00 TS -17.9833 90.3500 90 957 bom main 2033 2033 O_____O__OO_O_ jtwc_sh SH121978 -18.0000 90.3000 90 2 -18.0000 90.3000 40 90 957 5.50000 -18.0000 90.3000 TC 85 957 -18.0000 90.3000 4 90 -17.9000 90.6000 TC 90 956 8 256
1978010S11129 1978 2 SI MM TRUDY 1978-01-16 15:00:00 TS -18.0731 89.9376 90 958 bom main 2077 2077 P_____O__PP_P_ SH121978 -18.0849 89.8923 90 2 -18.1000 89.9000 40 90 958 5.50000 -18.0849 89.8998 TC 85 958 -18.0991 89.8488 4 88 -17.9849 90.1923 TC 90 957 8 255
1978010S11129 1978 2 SI MM TRUDY 1978-01-16 18:00:00 TS -18.1863 89.5362 90 960 bom main 2113 2113 O_____O__OP_O_ jtwc_sh SH121978 -18.2000 89.5000 90 2 -18.2000 89.5000 40 90 960 5.00000 -18.2000 89.5000 TC 85 960 -18.2177 89.4172 4 87 -18.1000 89.8000 TC 90 959 8 250
1978010S11129 1978 2 SI MM TRUDY 1978-01-16 21:00:00 TS -18.3558 89.1241 85 962 bom main 2154 2154 P_____O__PP_P_ SH121978 -18.3625 89.0775 87 2 -18.4000 89.1000 40 85 962 5.00000 -18.3625 89.0775 TC 82 962 -18.3773 89.0270 4 86 -18.2700 89.3850 TC 87 960 8 242
1978010S11129 1978 2 SI MM TRUDY 1978-01-17 00:00:00 TS -18.5833 88.7500 80 964 bom main 2190 2190 O_____O__OO_O_ jtwc_sh SH121978 -18.6000 88.7000 85 2 -18.6000 88.7000 40 80 964 5.00000 -18.6000 88.7000 TC 80 964 -18.6000 88.7000 4 85 -18.5000 89.0000 TC 85 962 8 229
1978010S11129 1978 2 SI MM TRUDY 1978-01-17 03:00:00 TS -18.8893 88.4664 80 966 bom main 2235 2235 P_____O__PP_P_ SH121978 -18.9199 88.4050 82 1 -18.9000 88.5000 40 80 966 5.00000 5.00000 -18.9199 88.4050 TC 77 966 -18.9059 88.4281 4 82 -18.7700 88.6550 TC 82 964 8 216
1978010S11129 1978 2 SI MM TRUDY 1978-01-17 06:00:00 TS -19.2624 88.2372 80 968 bom main 2289 2289 O_____O__OP_O_ jtwc_sh SH121978 -19.3000 88.2000 80 1 -19.3000 88.2000 40 80 968 5.00000 -19.3000 88.2000 TC 75 968 -19.2746 88.2230 4 80 -19.1000 88.4000 TC 80 966 8 204
1978010S11129 1978 2 SI MM TRUDY 1978-01-17 09:00:00 TS -19.6572 88.1052 80 970 bom main 2333 2333 P_____O__PP_P_ SH121978 -19.6925 88.0624 77 1 -19.7000 88.1000 40 80 970 4.50000 -19.6925 88.0624 TC 72 970 -19.6810 88.0813 4 77 -19.4849 88.2624 TC 77 968 8 193
1978010S11129 1978 2 SI MM TRUDY 1978-01-17 12:00:00 TS -20.0667 88.0333 70 972 bom main 2376 2376 O_____O__OO_O_ jtwc_sh SH121978 -20.1000 88.0000 75 1 -20.1000 88.0000 40 70 972 4.50000 -20.1000 88.0000 TC 70 972 -20.1000 88.0000 4 75 -19.9000 88.2000 TC 75 970 8 187
1978010S11129 1978 2 SI MM TRUDY 1978-01-17 15:00:00 TS -20.4688 88.0038 70 974 bom main 2406 2406 P_____O__PP_P_ SH121978 -20.5000 87.9774 72 1 -20.5000 88.0000 40 70 974 4.50000 -20.5000 87.9774 TC 67 974 -20.5130 87.9628 4 71 -20.3000 88.1275 TC 72 972 8 181
1978010S11129 1978 2 SI MM TRUDY 1978-01-17 18:00:00 TS -20.8716 88.0136 65 976 bom main 2433 2433 O_____O__OP_O_ jtwc_sh SH121978 -20.9000 88.0000 70 1 -20.9000 88.0000 40 65 976 4.50000 -20.9000 88.0000 TC 65 976 -20.9299 87.9817 4 67 -20.7000 88.1000 TC 70 974 8 176
1978010S11129 1978 2 SI MM TRUDY 1978-01-17 21:00:00 TS -21.2807 88.0662 65 978 bom main 2452 2452 P_____O__PP_P_ SH121978 -21.3150 88.0424 65 1 -21.3000 88.1000 40 65 978 4.50000 -21.3150 88.0424 TC 62 978 -21.3318 88.0348 4 63 -21.1075 88.1349 TC 67 976 8 173
1978010S11129 1978 2 SI MM TRUDY 1978-01-18 00:00:00 TS -21.6667 88.1167 65 981 bom main 2481 2481 O_____O__OO_O_ jtwc_sh SH121978 -21.7000 88.1000 60 0 -21.7000 88.1000 40 65 981 4.50000 -21.7000 88.1000 TC 60 981 -21.7000 88.1000 2 60 -21.5000 88.2000 TC 65 979 7 173
1978010S11129 1978 2 SI MM TRUDY 1978-01-18 03:00:00 TS -21.9925 88.1565 65 983 bom main 2494 2494 P_____O__PP_P_ SH121978 -22.0225 88.1500 57 0 -22.0000 88.1000 30 65 983 4.00000 4.00000 -22.0225 88.1500 TC 57 983 -22.0150 88.1388 2 56 -21.8725 88.2500 TC 60 981 6 172
1978010S11129 1978 2 SI MM TRUDY 1978-01-18 06:00:00 TS -22.2825 88.2142 60 985 bom main 2516 2516 O_____O__OP_O_ jtwc_sh SH121978 -22.3000 88.2000 55 0 -22.3000 88.2000 30 60 985 4.00000 -22.3000 88.2000 TC 55 985 -22.2950 88.1851 2 52 -22.2000 88.3000 TC 55 983 6 170
1978010S11129 1978 2 SI MM TRUDY 1978-01-18 09:00:00 TS -22.5317 88.2565 55 987 bom main 2523 2523 P_____O__PP_P_ SH121978 -22.5575 88.2500 50 0 -22.5000 88.2000 30 55 987 4.00000 -22.5575 88.2500 TC 52 987 -22.5525 88.2388 2 48 -22.4650 88.3500 TC 52 985 5 169
1978010S11129 1978 2 SI MM TRUDY 1978-01-18 12:00:00 TS -22.7833 88.3167 55 989 bom main 2546 2536 O_____O__OO_O_ jtwc_sh SH121978 -22.8000 88.3000 45 0 -22.8000 88.3000 30 55 989 3.50000 -22.8000 88.3000 TC 50 989 -22.8000 88.3000 2 45 -22.7000 88.4000 TC 50 987 5 169
1978010S11129 1978 2 SI MM TRUDY 1978-01-18 15:00:00 TS -23.0275 88.3576 50 991 bom main 2536 2529 P_____O__PP_P_ SH121978 -23.0500 88.3426 42 0 -23.0000 88.3000 30 50 991 3.50000 -23.0500 88.3426 TC 45 991 -23.0653 88.3678 2 42 -22.9500 88.4500 TC 47 989 5 169
1978010S11129 1978 2 SI MM TRUDY 1978-01-18 18:00:00 TS -23.2871 88.4237 50 993 bom main 2529 2514 O_____O__OP_O_ jtwc_sh SH121978 -23.3000 88.4000 40 0 -23.3000 88.4000 30 50 993 3.00000 -23.3000 88.4000 TC 40 993 -23.3225 88.4425 2 40 -23.2000 88.5000 TC 45 991 5 164
1978010S11129 1978 2 SI MM TRUDY 1978-01-18 21:00:00 TS -23.5318 88.5106 45 996 bom main 2514 2497 P_____O__PP_P_ SH121978 -23.5575 88.4999 37 0 -23.5000 88.5000 30 45 996 3.00000 -23.5575 88.4999 TC 35 996 -23.5684 88.5209 2 37 -23.4500 88.5426 TC 40 994 5 162
1978010S11129 1978 2 SI MM TRUDY 1978-01-19 00:00:00 TS -23.7833 88.6000 40 999 bom main 2497 2483 O_____O__OO_O_ jtwc_sh SH121978 -23.8000 88.6000 35 0 -23.8000 88.6000 20 40 999 2.50000 -23.8000 88.6000 TC 30 999 -23.8000 88.6000 2 35 -23.7000 88.6000 TC 35 997 5 164
1978010S11129 1978 2 SI MM TRUDY 1978-01-19 03:00:00 TS -24.0017 88.6542 30 1001 bom main 2483 2479 P_____O__PP_P_ SH121978 -24.0075 88.6501 35 0 -24.0000 88.6000 20 30 1001 2.50000 2.50000 -24.0075 88.6501 TC 30 1000 -24.0225 88.6751 2 33 -23.9650 88.6999 TC 32 998 4 165
1978010S11129 1978 2 SI MM TRUDY 1978-01-19 06:00:00 TS -24.2050 88.7250 30 1001 bom main 2479 2465 O_____O__OP_O_ jtwc_sh SH121978 -24.2000 88.7000 35 0 -24.2000 88.7000 20 30 1001 2.50000 -24.2000 88.7000 TC 30 1001 -24.2300 88.7501 2 32 -24.2000 88.8000 TC 30 1000 4 160
1978010S11129 1978 2 SI MM TRUDY 1978-01-19 09:00:00 TS -24.3992 88.8125 30 1001 bom main 2465 2451 P_____O__PP_P_ SH121978 -24.4075 88.7999 32 -1 -24.4000 88.8000 20 30 1001 2.50000 -24.4000 88.8000 TC 27 1001 -24.4225 88.8251 2 31 -24.3575 88.8501 TC 27 1000 4 158
1978010S11129 1978 2 SI MM TRUDY 1978-01-19 12:00:00 TS -24.5833 88.9000 30 1002 bom main 2451 2438 O_____O__OO_O_ jtwc_sh SH121978 -24.6000 88.9000 30 -1 -24.6000 88.9000 20 30 1002 2.50000 -24.6000 88.9000 TC 25 1002 -24.6000 88.9000 1 30 -24.5000 88.9000 TC 25 1001 4 161
1978010S11129 1978 2 SI MM TRUDY 1978-01-19 15:00:00 TS -24.7668 88.9542 30 1003 bom main 2438 2436 P_____O__PP_P_ SH121978 -24.7575 88.9501 30 -1 -24.8000 88.9000 20 30 1003 2.00000 -24.8150 88.9501 TC 22 1003 -24.7631 88.9749 1 28 -24.7075 88.9999 TC 25 1002 4 163
1978010S11129 1978 2 SI MM TRUDY 1978-01-19 18:00:00 TS -24.9358 89.0250 25 1004 bom main 2436 2422 O_____O__OP_O_ jtwc_sh SH121978 -24.9000 89.0000 30 -1 -25.0000 89.0000 20 25 1004 2.00000 -25.0000 89.0000 TC 20 1004 -24.9150 89.0499 1 27 -24.9000 89.1000 TC 25 1003 3 156
1978010S11129 1978 2 SI MM TRUDY 1978-01-19 21:00:00 TS -25.0662 89.1083 25 1005 bom main 2422 2411 P_____O__PP_P_ SH121978 -25.0475 89.0874 27 -1 -25.1000 89.1000 20 25 1005 1.50000 -25.1200 89.0875 TC 17 1005 -25.0594 89.1249 1 26 -25.0225 89.1626 TC 22 1004 3 148
1978010S11129 1978 2 SI MM TRUDY 1978-01-20 00:00:00 TS -25.1833 89.2000 25 1006 bom main 2411 O_____O__OO_O_ jtwc_sh SH121978 -25.2000 89.2000 25 -1 -25.2000 89.2000 20 25 1006 1.50000 -25.2000 89.2000 TC 15 1006 -25.2000 89.2000 1 25 -25.1000 89.2000 TC 20 1005 3 145

About IBTrACS Database

This database is a web-friendly format of International Best Track Archive for Climate Stewardship (IBTrACS), a global best track data archive curated by NOAA dating back to 1842.

Updated: 2021-11-26